createdAt,value
2023-02-24T00:00:51.770Z,24.40
2023-02-24T00:05:59.422Z,22.45
2023-02-24T00:11:11.411Z,16.38
2023-02-24T00:21:45.419Z,31.33
2023-02-24T00:27:03.773Z,28.40
2023-02-24T00:32:22.554Z,25.70
2023-02-24T00:37:29.746Z,30.38
2023-02-24T00:42:50.220Z,22.48
2023-02-24T00:47:57.723Z,28.00
2023-02-24T00:53:06.854Z,28.60
2023-02-24T00:58:09.568Z,24.85
2023-02-24T01:03:17.083Z,27.42
2023-02-24T01:08:22.000Z,18.38
2023-02-24T01:13:28.045Z,15.32
2023-02-24T01:18:39.264Z,4.93
2023-02-24T01:23:44.162Z,4.88
2023-02-24T01:28:52.264Z,3.10
2023-02-24T01:34:05.945Z,1.45
2023-02-24T01:39:12.302Z,2.45
2023-02-24T01:44:14.807Z,1.85
2023-02-24T01:49:36.993Z,1.27
2023-02-24T01:55:00.167Z,1.15
2023-02-24T02:00:33.521Z,1.63
2023-02-24T02:05:41.176Z,9.32
2023-02-24T02:10:51.039Z,3.78
2023-02-24T02:20:31.480Z,3.63
2023-02-24T02:26:03.198Z,3.45
2023-02-24T02:31:27.834Z,3.85
2023-02-24T02:36:50.224Z,1.63
2023-02-24T02:42:20.515Z,1.20
2023-02-24T02:47:43.544Z,1.30
2023-02-24T02:53:10.692Z,1.20
2023-02-24T02:58:23.222Z,3.58
2023-02-24T03:03:29.186Z,2.70
2023-02-24T03:08:39.022Z,1.55
2023-02-24T03:13:51.520Z,2.75
2023-02-24T03:19:06.478Z,1.77
2023-02-24T03:24:10.103Z,2.10
2023-02-24T03:29:24.212Z,3.00
2023-02-24T03:34:43.121Z,2.55
2023-02-24T03:39:51.931Z,4.15
2023-02-24T03:45:00.264Z,3.40
2023-02-24T03:50:02.753Z,3.13
2023-02-24T03:55:34.391Z,3.03
2023-02-24T04:00:49.985Z,3.78
2023-02-24T04:06:15.982Z,3.35
2023-02-24T04:11:41.488Z,2.47
2023-02-24T04:16:58.060Z,4.20
2023-02-24T04:22:01.419Z,2.10
2023-02-24T04:27:11.606Z,1.60
2023-02-24T04:32:22.072Z,1.92
2023-02-24T04:37:26.706Z,2.85
2023-02-24T04:42:28.934Z,2.40
2023-02-24T04:47:42.998Z,2.55
2023-02-24T04:52:47.808Z,2.03
2023-02-24T04:57:55.583Z,2.35
2023-02-24T05:09:22.467Z,3.10
2023-02-24T05:14:29.095Z,3.08
2023-02-24T05:19:51.866Z,2.45
2023-02-24T05:24:59.560Z,3.30
2023-02-24T05:35:22.923Z,4.55
2023-02-24T05:40:36.013Z,4.25
2023-02-24T05:45:43.299Z,2.88
2023-02-24T05:50:54.967Z,3.47
2023-02-24T05:56:06.562Z,3.83
2023-02-24T06:01:17.121Z,3.53
2023-02-24T06:06:27.329Z,3.80
2023-02-24T06:11:31.766Z,3.30
2023-02-24T06:16:46.149Z,4.00
2023-02-24T06:22:06.799Z,3.10
2023-02-24T06:27:13.595Z,3.33
2023-02-24T06:32:26.157Z,3.95
2023-02-24T06:37:31.589Z,3.20
2023-02-24T06:42:40.726Z,3.97
2023-02-24T06:47:53.255Z,4.47
2023-02-24T06:53:12.974Z,3.30
2023-02-24T06:58:24.494Z,4.68
2023-02-24T07:03:49.391Z,4.07
2023-02-24T07:14:20.457Z,4.32
2023-02-24T07:19:29.559Z,4.03
2023-02-24T07:24:46.777Z,3.67
2023-02-24T07:30:02.813Z,3.70
2023-02-24T07:35:20.849Z,4.60
2023-02-24T07:40:26.438Z,4.68
2023-02-24T07:45:39.614Z,4.60
2023-02-24T07:56:20.260Z,4.35
2023-02-24T08:01:42.385Z,4.50
2023-02-24T08:06:57.804Z,4.22
2023-02-24T08:12:02.672Z,5.63
2023-02-24T08:17:09.635Z,3.67
2023-02-24T08:22:21.134Z,6.90
2023-02-24T08:27:39.228Z,5.60
2023-02-24T08:32:44.098Z,12.75
2023-02-24T08:37:57.510Z,10.05
2023-02-24T08:43:22.798Z,5.57
2023-02-24T08:48:47.496Z,4.97
2023-02-24T08:53:56.193Z,6.97
2023-02-24T08:59:29.643Z,7.35
2023-02-24T09:04:37.171Z,4.65
2023-02-24T09:09:54.034Z,4.13
2023-02-24T09:15:07.085Z,3.88
2023-02-24T09:20:29.766Z,4.93
2023-02-24T09:25:50.685Z,6.25
2023-02-24T09:31:01.726Z,4.28
2023-02-24T09:36:42.601Z,4.00
2023-02-24T09:42:14.139Z,9.55
2023-02-24T09:47:47.962Z,4.93
2023-02-24T09:53:17.677Z,5.38
2023-02-24T09:58:47.901Z,5.10
2023-02-24T10:04:20.996Z,5.38
2023-02-24T10:09:47.571Z,5.30
2023-02-24T10:15:22.858Z,4.68
2023-02-24T10:20:49.039Z,3.75
2023-02-24T10:26:07.119Z,6.05
2023-02-24T10:31:43.232Z,4.32
2023-02-24T10:36:52.953Z,5.28
2023-02-24T10:42:19.793Z,4.70
2023-02-24T10:47:35.813Z,4.25
2023-02-24T10:53:04.882Z,4.38
2023-02-24T10:59:08.356Z,5.00
2023-02-24T11:04:34.502Z,3.65
2023-02-24T11:10:00.850Z,5.15
2023-02-24T11:15:49.595Z,3.95
2023-02-24T11:21:14.898Z,4.85
2023-02-24T11:26:40.122Z,5.05
2023-02-24T11:32:09.359Z,4.53
2023-02-24T11:37:45.541Z,3.60
2023-02-24T11:42:57.206Z,4.85
2023-02-24T11:48:24.949Z,4.88
2023-02-24T11:53:52.024Z,6.00
2023-02-24T11:59:25.372Z,4.50
2023-02-24T12:04:50.536Z,4.38
2023-02-24T12:10:24.481Z,3.80
2023-02-24T12:15:56.612Z,3.67
2023-02-24T12:21:23.651Z,3.22
2023-02-24T12:26:56.926Z,4.18
2023-02-24T12:32:35.349Z,3.88
2023-02-24T12:38:06.208Z,5.45
2023-02-24T12:43:33.799Z,4.93
2023-02-24T12:48:59.372Z,3.15
2023-02-24T12:54:24.676Z,3.28
2023-02-24T12:59:46.218Z,2.30
2023-02-24T13:05:41.888Z,2.42
2023-02-24T13:10:52.099Z,4.95
2023-02-24T13:16:01.943Z,9.48
2023-02-24T13:21:28.294Z,5.72
2023-02-24T13:26:34.688Z,3.50
2023-02-24T13:31:48.559Z,2.42
2023-02-24T13:36:54.166Z,3.40
2023-02-24T13:42:31.464Z,2.72
2023-02-24T13:47:52.923Z,3.72
2023-02-24T13:53:34.793Z,2.53
2023-02-24T13:59:09.656Z,3.85
2023-02-24T14:04:21.689Z,3.47
2023-02-24T14:09:52.321Z,4.15
2023-02-24T14:15:02.370Z,4.00
2023-02-24T14:20:29.847Z,2.65
2023-02-24T14:25:42.171Z,4.88
2023-02-24T14:30:59.919Z,4.45
2023-02-24T14:36:14.771Z,4.60
2023-02-24T14:41:30.784Z,7.07
2023-02-24T14:46:50.586Z,4.55
2023-02-24T14:52:20.274Z,26.40
2023-02-24T14:57:42.269Z,10.05
2023-02-24T15:03:20.869Z,8.95
2023-02-24T15:08:40.252Z,4.40
2023-02-24T15:13:53.226Z,5.38
2023-02-24T15:19:01.952Z,3.85
2023-02-24T15:24:37.497Z,5.30
2023-02-24T15:30:00.851Z,3.88
2023-02-24T15:35:06.642Z,7.53
2023-02-24T15:40:31.647Z,4.75
2023-02-24T15:45:43.389Z,4.20
2023-02-24T15:50:53.950Z,4.05
2023-02-24T15:56:07.167Z,5.10
2023-02-24T16:01:20.192Z,4.30
2023-02-24T16:06:37.747Z,3.38
2023-02-24T16:11:47.294Z,3.70
2023-02-24T16:17:01.113Z,3.10
2023-02-24T16:22:15.862Z,3.00
2023-02-24T16:27:22.121Z,3.85
2023-02-24T16:32:30.356Z,3.17
2023-02-24T16:37:50.303Z,3.28
2023-02-24T16:43:00.426Z,3.55
2023-02-24T16:48:27.672Z,2.53
2023-02-24T16:53:33.740Z,2.90
2023-02-24T16:58:41.525Z,4.05
2023-02-24T17:03:49.142Z,3.03
2023-02-24T17:08:56.044Z,2.33
2023-02-24T17:14:05.860Z,2.70
2023-02-24T17:19:22.538Z,2.55
2023-02-24T17:24:35.631Z,3.97
2023-02-24T17:29:50.610Z,2.35
2023-02-24T17:34:59.576Z,2.20
2023-02-24T17:40:06.598Z,4.50
2023-02-24T17:45:14.241Z,6.90
2023-02-24T17:50:17.901Z,3.55
2023-02-24T17:55:23.319Z,11.10
2023-02-24T18:00:29.192Z,4.32
2023-02-24T18:05:36.669Z,3.33
2023-02-24T18:10:40.239Z,2.92
2023-02-24T18:15:42.347Z,3.45
2023-02-24T18:20:44.994Z,2.65
2023-02-24T18:25:47.630Z,3.47
2023-02-24T18:30:49.749Z,3.65
2023-02-24T18:36:01.045Z,4.82
2023-02-24T18:41:09.168Z,2.80
2023-02-24T18:46:13.686Z,4.35
2023-02-24T18:51:22.406Z,36.63
2023-02-24T18:56:31.158Z,13.70
2023-02-24T19:01:38.898Z,6.95
2023-02-24T19:06:42.232Z,4.57
2023-02-24T19:11:44.414Z,4.53
2023-02-24T19:16:46.434Z,4.55
2023-02-24T19:21:49.594Z,4.60
2023-02-24T19:26:53.447Z,4.55
2023-02-24T19:31:59.476Z,3.90
2023-02-24T19:37:01.803Z,4.10
2023-02-24T19:42:03.970Z,5.72
2023-02-24T19:47:05.853Z,5.28
2023-02-24T19:52:08.092Z,5.00
2023-02-24T20:02:17.144Z,6.38
2023-02-24T20:07:19.328Z,7.82
2023-02-24T20:12:25.372Z,6.25
2023-02-24T20:17:37.913Z,5.15
2023-02-24T20:28:03.175Z,5.47
2023-02-24T20:33:11.655Z,7.63
2023-02-24T20:38:17.064Z,5.97
2023-02-24T20:48:51.516Z,5.10
2023-02-24T20:54:01.885Z,5.22
2023-02-24T20:59:17.772Z,4.75
2023-02-24T21:04:21.547Z,5.07
2023-02-24T21:09:30.316Z,4.82
2023-02-24T21:14:35.579Z,4.57
2023-02-24T21:19:45.744Z,7.57
2023-02-24T21:24:50.828Z,6.53
2023-02-24T21:30:00.239Z,6.43
2023-02-24T21:35:11.773Z,6.13
2023-02-24T21:40:18.741Z,4.88
2023-02-24T21:45:27.972Z,5.53
2023-02-24T21:55:52.309Z,6.35
2023-02-24T22:00:58.398Z,6.63
2023-02-24T22:06:04.849Z,5.68
2023-02-24T22:11:19.369Z,6.40
2023-02-24T22:16:27.438Z,9.25
2023-02-24T22:21:34.799Z,7.15
2023-02-24T22:26:46.782Z,5.93
2023-02-24T22:31:52.079Z,6.38
2023-02-24T22:36:58.481Z,5.72
2023-02-24T22:42:04.522Z,6.05
2023-02-24T22:47:10.739Z,5.78
2023-02-24T22:52:18.128Z,5.55
2023-02-24T22:57:21.693Z,8.52
2023-02-24T23:02:32.690Z,6.45
2023-02-24T23:07:50.794Z,6.30
2023-02-24T23:13:15.288Z,9.38
2023-02-24T23:18:21.777Z,9.05
2023-02-24T23:23:29.343Z,6.55
2023-02-24T23:28:57.771Z,6.03
2023-02-24T23:34:10.198Z,7.35
2023-02-24T23:39:40.431Z,6.25
2023-02-24T23:44:52.543Z,5.38
2023-02-24T23:50:07.212Z,5.80
2023-02-24T23:55:32.264Z,7.43
